sensor_id;sensor_type;location;lat;lon;timestamp;temperature;humidity
43249;DHT22;29216;51.248;6.808;2022-09-12T00:00:28;14.00;99.90
43249;DHT22;29216;51.248;6.808;2022-09-12T00:02:57;14.00;99.90
43249;DHT22;29216;51.248;6.808;2022-09-12T00:05:23;14.00;99.90
43249;DHT22;29216;51.248;6.808;2022-09-12T00:07:49;14.00;99.90
43249;DHT22;29216;51.248;6.808;2022-09-12T00:10:15;14.00;99.90
43249;DHT22;29216;51.248;6.808;2022-09-12T00:12:41;13.90;99.90
43249;DHT22;29216;51.248;6.808;2022-09-12T00:15:07;13.90;99.90
43249;DHT22;29216;51.248;6.808;2022-09-12T00:17:34;13.90;99.90
43249;DHT22;29216;51.248;6.808;2022-09-12T00:20:00;13.90;99.90
43249;DHT22;29216;51.248;6.808;2022-09-12T00:22:26;13.90;99.90
43249;DHT22;29216;51.248;6.808;2022-09-12T00:24:51;13.90;99.90
43249;DHT22;29216;51.248;6.808;2022-09-12T00:27:17;13.90;99.90
43249;DHT22;29216;51.248;6.808;2022-09-12T00:29:42;13.90;99.90
43249;DHT22;29216;51.248;6.808;2022-09-12T00:32:08;13.80;99.90
43249;DHT22;29216;51.248;6.808;2022-09-12T00:34:34;13.80;99.90
43249;DHT22;29216;51.248;6.808;2022-09-12T00:37:00;13.80;99.90
43249;DHT22;29216;51.248;6.808;2022-09-12T00:39:26;13.70;99.90
43249;DHT22;29216;51.248;6.808;2022-09-12T00:41:51;13.80;99.90
43249;DHT22;29216;51.248;6.808;2022-09-12T00:51:54;13.80;99.90
43249;DHT22;29216;51.248;6.808;2022-09-12T00:54:25;13.80;99.90
43249;DHT22;29216;51.248;6.808;2022-09-12T00:56:55;13.80;99.90
43249;DHT22;29216;51.248;6.808;2022-09-12T00:59:30;13.70;99.90
43249;DHT22;29216;51.248;6.808;2022-09-12T01:01:57;13.70;99.90
43249;DHT22;29216;51.248;6.808;2022-09-12T01:04:24;13.80;99.90
43249;DHT22;29216;51.248;6.808;2022-09-12T01:06:51;13.70;99.90
43249;DHT22;29216;51.248;6.808;2022-09-12T01:09:20;13.70;99.90
43249;DHT22;29216;51.248;6.808;2022-09-12T01:11:47;13.60;99.90
43249;DHT22;29216;51.248;6.808;2022-09-12T01:14:17;13.60;99.90
43249;DHT22;29216;51.248;6.808;2022-09-12T01:16:43;13.60;99.90
43249;DHT22;29216;51.248;6.808;2022-09-12T01:38:09;13.40;99.90
43249;DHT22;29216;51.248;6.808;2022-09-12T01:43:22;13.20;99.90
43249;DHT22;29216;51.248;6.808;2022-09-12T01:49:06;13.20;99.90
43249;DHT22;29216;51.248;6.808;2022-09-12T01:52:21;13.10;99.90
43249;DHT22;29216;51.248;6.808;2022-09-12T01:54:54;13.10;99.90
43249;DHT22;29216;51.248;6.808;2022-09-12T01:57:33;13.10;99.90
43249;DHT22;29216;51.248;6.808;2022-09-12T02:00:05;13.20;99.90
43249;DHT22;29216;51.248;6.808;2022-09-12T02:02:42;13.20;99.90
43249;DHT22;29216;51.248;6.808;2022-09-12T02:05:36;13.20;99.90
43249;DHT22;29216;51.248;6.808;2022-09-12T02:08:07;13.30;99.90
43249;DHT22;29216;51.248;6.808;2022-09-12T02:10:42;13.20;99.90
43249;DHT22;29216;51.248;6.808;2022-09-12T02:13:14;13.30;99.90
43249;DHT22;29216;51.248;6.808;2022-09-12T02:15:51;13.30;99.90
43249;DHT22;29216;51.248;6.808;2022-09-12T02:18:19;13.20;99.90
43249;DHT22;29216;51.248;6.808;2022-09-12T02:20:47;13.20;99.90
43249;DHT22;29216;51.248;6.808;2022-09-12T02:23:18;13.10;99.90
43249;DHT22;29216;51.248;6.808;2022-09-12T02:25:47;13.10;99.90
43249;DHT22;29216;51.248;6.808;2022-09-12T02:28:21;13.10;99.90
43249;DHT22;29216;51.248;6.808;2022-09-12T02:31:27;13.00;99.90
43249;DHT22;29216;51.248;6.808;2022-09-12T02:36:33;13.00;99.90
43249;DHT22;29216;51.248;6.808;2022-09-12T02:39:03;13.10;99.90
43249;DHT22;29216;51.248;6.808;2022-09-12T02:41:29;13.10;99.90
43249;DHT22;29216;51.248;6.808;2022-09-12T02:43:55;13.10;99.90
43249;DHT22;29216;51.248;6.808;2022-09-12T02:46:25;13.10;99.90
43249;DHT22;29216;51.248;6.808;2022-09-12T02:48:51;13.20;99.90
43249;DHT22;29216;51.248;6.808;2022-09-12T02:51:17;13.20;99.90
43249;DHT22;29216;51.248;6.808;2022-09-12T02:53:43;13.20;99.90
43249;DHT22;29216;51.248;6.808;2022-09-12T02:56:15;13.20;99.90
43249;DHT22;29216;51.248;6.808;2022-09-12T02:58:42;13.30;99.90
43249;DHT22;29216;51.248;6.808;2022-09-12T03:07:53;13.20;99.90
43249;DHT22;29216;51.248;6.808;2022-09-12T03:13:22;13.20;99.90
43249;DHT22;29216;51.248;6.808;2022-09-12T03:22:06;13.10;99.90
43249;DHT22;29216;51.248;6.808;2022-09-12T03:24:40;13.10;99.90
43249;DHT22;29216;51.248;6.808;2022-09-12T03:29:42;13.20;99.90
43249;DHT22;29216;51.248;6.808;2022-09-12T03:32:10;13.10;99.90
43249;DHT22;29216;51.248;6.808;2022-09-12T03:34:36;13.10;99.90
43249;DHT22;29216;51.248;6.808;2022-09-12T03:37:01;13.10;99.90
43249;DHT22;29216;51.248;6.808;2022-09-12T03:39:27;13.10;99.90
43249;DHT22;29216;51.248;6.808;2022-09-12T03:41:54;13.00;99.90
43249;DHT22;29216;51.248;6.808;2022-09-12T03:44:20;12.90;99.90
43249;DHT22;29216;51.248;6.808;2022-09-12T03:46:45;13.00;99.90
43249;DHT22;29216;51.248;6.808;2022-09-12T03:49:11;13.00;99.90
43249;DHT22;29216;51.248;6.808;2022-09-12T03:51:38;13.00;99.90
43249;DHT22;29216;51.248;6.808;2022-09-12T03:54:03;12.90;99.90
43249;DHT22;29216;51.248;6.808;2022-09-12T03:56:30;12.90;99.90
43249;DHT22;29216;51.248;6.808;2022-09-12T03:58:55;12.90;99.90
43249;DHT22;29216;51.248;6.808;2022-09-12T04:01:22;13.00;99.90
43249;DHT22;29216;51.248;6.808;2022-09-12T04:03:50;13.00;99.90
43249;DHT22;29216;51.248;6.808;2022-09-12T04:06:19;13.00;99.90
43249;DHT22;29216;51.248;6.808;2022-09-12T04:08:47;13.00;99.90
43249;DHT22;29216;51.248;6.808;2022-09-12T04:11:15;13.00;99.90
43249;DHT22;29216;51.248;6.808;2022-09-12T04:13:43;13.00;99.90
43249;DHT22;29216;51.248;6.808;2022-09-12T04:16:10;13.10;99.90
43249;DHT22;29216;51.248;6.808;2022-09-12T04:18:35;13.10;99.90
43249;DHT22;29216;51.248;6.808;2022-09-12T04:21:06;13.10;99.90
43249;DHT22;29216;51.248;6.808;2022-09-12T04:23:33;13.10;99.90
43249;DHT22;29216;51.248;6.808;2022-09-12T04:26:00;13.10;99.90
43249;DHT22;29216;51.248;6.808;2022-09-12T04:28:27;12.90;99.90
43249;DHT22;29216;51.248;6.808;2022-09-12T04:31:00;12.90;99.90
43249;DHT22;29216;51.248;6.808;2022-09-12T04:33:26;12.90;99.90
43249;DHT22;29216;51.248;6.808;2022-09-12T04:35:52;12.90;99.90
43249;DHT22;29216;51.248;6.808;2022-09-12T04:38:20;12.90;99.90
43249;DHT22;29216;51.248;6.808;2022-09-12T04:40:46;12.90;99.90
43249;DHT22;29216;51.248;6.808;2022-09-12T04:43:12;12.80;99.90
43249;DHT22;29216;51.248;6.808;2022-09-12T04:45:37;12.90;99.90
43249;DHT22;29216;51.248;6.808;2022-09-12T04:48:03;12.80;99.90
43249;DHT22;29216;51.248;6.808;2022-09-12T04:50:29;12.80;99.90
43249;DHT22;29216;51.248;6.808;2022-09-12T04:52:54;12.90;99.90
43249;DHT22;29216;51.248;6.808;2022-09-12T04:55:21;12.80;99.90
43249;DHT22;29216;51.248;6.808;2022-09-12T04:57:47;12.80;99.90
43249;DHT22;29216;51.248;6.808;2022-09-12T05:00:12;12.90;99.90
43249;DHT22;29216;51.248;6.808;2022-09-12T05:02:42;12.90;99.90
43249;DHT22;29216;51.248;6.808;2022-09-12T05:05:09;12.90;99.90
43249;DHT22;29216;51.248;6.808;2022-09-12T05:07:35;12.90;99.90
43249;DHT22;29216;51.248;6.808;2022-09-12T05:10:01;13.00;99.90
43249;DHT22;29216;51.248;6.808;2022-09-12T05:12:28;13.00;99.90
43249;DHT22;29216;51.248;6.808;2022-09-12T05:14:55;13.10;99.90
43249;DHT22;29216;51.248;6.808;2022-09-12T05:17:21;13.10;99.90
43249;DHT22;29216;51.248;6.808;2022-09-12T05:19:47;13.20;99.90
43249;DHT22;29216;51.248;6.808;2022-09-12T05:22:12;13.20;99.90
43249;DHT22;29216;51.248;6.808;2022-09-12T05:24:38;13.30;99.90
43249;DHT22;29216;51.248;6.808;2022-09-12T05:27:07;13.40;99.90
43249;DHT22;29216;51.248;6.808;2022-09-12T05:29:33;13.50;99.90
43249;DHT22;29216;51.248;6.808;2022-09-12T05:31:59;13.60;99.90
43249;DHT22;29216;51.248;6.808;2022-09-12T05:34:24;13.70;99.90
43249;DHT22;29216;51.248;6.808;2022-09-12T05:36:52;13.80;99.90
43249;DHT22;29216;51.248;6.808;2022-09-12T05:39:17;13.80;99.90
43249;DHT22;29216;51.248;6.808;2022-09-12T05:41:43;13.90;99.90
43249;DHT22;29216;51.248;6.808;2022-09-12T05:44:12;14.10;99.90
43249;DHT22;29216;51.248;6.808;2022-09-12T05:46:40;14.20;99.90
43249;DHT22;29216;51.248;6.808;2022-09-12T05:49:11;14.30;99.90
43249;DHT22;29216;51.248;6.808;2022-09-12T05:51:40;14.40;99.90
43249;DHT22;29216;51.248;6.808;2022-09-12T05:54:07;14.60;99.90
43249;DHT22;29216;51.248;6.808;2022-09-12T05:56:37;14.70;99.90
43249;DHT22;29216;51.248;6.808;2022-09-12T05:59:09;14.80;99.90
43249;DHT22;29216;51.248;6.808;2022-09-12T06:01:36;15.00;99.90
43249;DHT22;29216;51.248;6.808;2022-09-12T06:04:03;15.20;99.90
43249;DHT22;29216;51.248;6.808;2022-09-12T06:06:30;15.40;99.90
43249;DHT22;29216;51.248;6.808;2022-09-12T06:09:01;15.70;99.90
43249;DHT22;29216;51.248;6.808;2022-09-12T06:11:29;16.10;99.90
43249;DHT22;29216;51.248;6.808;2022-09-12T06:13:56;16.40;99.90
43249;DHT22;29216;51.248;6.808;2022-09-12T06:16:25;16.80;99.90
43249;DHT22;29216;51.248;6.808;2022-09-12T06:18:53;17.10;99.90
43249;DHT22;29216;51.248;6.808;2022-09-12T06:21:20;17.70;99.90
43249;DHT22;29216;51.248;6.808;2022-09-12T06:23:46;18.30;99.90
43249;DHT22;29216;51.248;6.808;2022-09-12T06:26:13;18.80;99.90
43249;DHT22;29216;51.248;6.808;2022-09-12T06:28:41;19.30;99.90
43249;DHT22;29216;51.248;6.808;2022-09-12T06:31:08;19.40;99.90
43249;DHT22;29216;51.248;6.808;2022-09-12T06:33:35;19.50;99.90
43249;DHT22;29216;51.248;6.808;2022-09-12T06:36:15;19.70;99.90
43249;DHT22;29216;51.248;6.808;2022-09-12T06:38:41;19.90;99.90
43249;DHT22;29216;51.248;6.808;2022-09-12T06:41:09;20.40;99.90
43249;DHT22;29216;51.248;6.808;2022-09-12T06:43:37;20.70;99.90
43249;DHT22;29216;51.248;6.808;2022-09-12T06:46:03;21.30;99.90
43249;DHT22;29216;51.248;6.808;2022-09-12T06:48:29;21.60;99.90
43249;DHT22;29216;51.248;6.808;2022-09-12T06:51:00;21.70;99.90
43249;DHT22;29216;51.248;6.808;2022-09-12T06:53:29;21.60;99.90
43249;DHT22;29216;51.248;6.808;2022-09-12T06:58:22;21.10;99.90
43249;DHT22;29216;51.248;6.808;2022-09-12T07:00:48;21.00;99.90
43249;DHT22;29216;51.248;6.808;2022-09-12T07:03:13;20.90;99.90
43249;DHT22;29216;51.248;6.808;2022-09-12T07:05:39;20.80;99.90
43249;DHT22;29216;51.248;6.808;2022-09-12T07:08:04;20.80;99.90
43249;DHT22;29216;51.248;6.808;2022-09-12T07:10:30;20.90;99.90
43249;DHT22;29216;51.248;6.808;2022-09-12T07:12:56;21.00;99.90
43249;DHT22;29216;51.248;6.808;2022-09-12T07:15:21;20.90;99.90
43249;DHT22;29216;51.248;6.808;2022-09-12T07:17:47;20.70;99.90
43249;DHT22;29216;51.248;6.808;2022-09-12T07:20:12;20.60;99.90
43249;DHT22;29216;51.248;6.808;2022-09-12T07:22:38;20.30;99.90
43249;DHT22;29216;51.248;6.808;2022-09-12T07:25:04;20.10;99.90
43249;DHT22;29216;51.248;6.808;2022-09-12T07:27:29;20.00;99.90
43249;DHT22;29216;51.248;6.808;2022-09-12T07:29:55;19.90;99.90
43249;DHT22;29216;51.248;6.808;2022-09-12T07:32:20;19.80;99.90
43249;DHT22;29216;51.248;6.808;2022-09-12T07:34:47;19.80;99.90
43249;DHT22;29216;51.248;6.808;2022-09-12T07:37:14;19.80;99.90
43249;DHT22;29216;51.248;6.808;2022-09-12T07:39:40;19.80;99.90
43249;DHT22;29216;51.248;6.808;2022-09-12T07:42:05;19.80;99.90
43249;DHT22;29216;51.248;6.808;2022-09-12T07:44:31;19.90;99.90
43249;DHT22;29216;51.248;6.808;2022-09-12T07:46:57;20.10;99.90
43249;DHT22;29216;51.248;6.808;2022-09-12T07:49:22;20.20;99.90
43249;DHT22;29216;51.248;6.808;2022-09-12T07:51:48;20.40;99.90
43249;DHT22;29216;51.248;6.808;2022-09-12T07:54:14;20.60;99.90
43249;DHT22;29216;51.248;6.808;2022-09-12T07:56:40;20.80;99.90
43249;DHT22;29216;51.248;6.808;2022-09-12T07:59:08;20.70;99.90
43249;DHT22;29216;51.248;6.808;2022-09-12T08:01:34;20.60;99.90
43249;DHT22;29216;51.248;6.808;2022-09-12T08:04:00;20.50;99.90
43249;DHT22;29216;51.248;6.808;2022-09-12T08:06:27;20.40;99.90
43249;DHT22;29216;51.248;6.808;2022-09-12T08:08:56;20.20;99.90
43249;DHT22;29216;51.248;6.808;2022-09-12T08:11:24;20.20;99.90
43249;DHT22;29216;51.248;6.808;2022-09-12T08:13:53;20.30;99.90
43249;DHT22;29216;51.248;6.808;2022-09-12T08:16:21;20.50;99.90
43249;DHT22;29216;51.248;6.808;2022-09-12T08:18:48;20.60;99.90
43249;DHT22;29216;51.248;6.808;2022-09-12T08:21:22;20.90;99.90
43249;DHT22;29216;51.248;6.808;2022-09-12T08:23:56;21.10;99.90
43249;DHT22;29216;51.248;6.808;2022-09-12T08:26:23;21.40;99.90
43249;DHT22;29216;51.248;6.808;2022-09-12T08:28:49;21.70;99.90
43249;DHT22;29216;51.248;6.808;2022-09-12T08:31:17;22.10;99.90
43249;DHT22;29216;51.248;6.808;2022-09-12T08:33:43;22.70;99.90
43249;DHT22;29216;51.248;6.808;2022-09-12T08:36:11;23.10;99.90
43249;DHT22;29216;51.248;6.808;2022-09-12T08:38:40;24.00;99.90
43249;DHT22;29216;51.248;6.808;2022-09-12T08:44:03;24.90;99.90
43249;DHT22;29216;51.248;6.808;2022-09-12T08:49:25;25.00;99.90
43249;DHT22;29216;51.248;6.808;2022-09-12T08:51:54;25.00;99.90
43249;DHT22;29216;51.248;6.808;2022-09-12T08:54:25;24.60;99.90
43249;DHT22;29216;51.248;6.808;2022-09-12T08:56:57;24.20;99.90
43249;DHT22;29216;51.248;6.808;2022-09-12T08:59:23;24.00;99.90
43249;DHT22;29216;51.248;6.808;2022-09-12T09:01:54;23.80;99.90
43249;DHT22;29216;51.248;6.808;2022-09-12T09:25:59;22.60;99.90
43249;DHT22;29216;51.248;6.808;2022-09-12T09:30:58;22.30;99.90
43249;DHT22;29216;51.248;6.808;2022-09-12T09:33:27;22.20;99.90
43249;DHT22;29216;51.248;6.808;2022-09-12T09:38:42;22.20;99.90
43249;DHT22;29216;51.248;6.808;2022-09-12T09:41:17;22.30;99.90
43249;DHT22;29216;51.248;6.808;2022-09-12T09:43:45;22.20;99.90
43249;DHT22;29216;51.248;6.808;2022-09-12T09:46:11;22.20;99.90
43249;DHT22;29216;51.248;6.808;2022-09-12T09:48:42;22.10;99.90
43249;DHT22;29216;51.248;6.808;2022-09-12T09:51:08;22.00;99.90
43249;DHT22;29216;51.248;6.808;2022-09-12T09:53:44;21.90;99.90
43249;DHT22;29216;51.248;6.808;2022-09-12T09:56:39;22.00;99.90
43249;DHT22;29216;51.248;6.808;2022-09-12T09:59:25;21.90;99.90
43249;DHT22;29216;51.248;6.808;2022-09-12T10:02:02;21.90;99.90
43249;DHT22;29216;51.248;6.808;2022-09-12T10:04:30;21.90;99.90
43249;DHT22;29216;51.248;6.808;2022-09-12T10:06:57;21.90;99.90
43249;DHT22;29216;51.248;6.808;2022-09-12T10:09:28;21.90;99.90
43249;DHT22;29216;51.248;6.808;2022-09-12T10:11:55;21.90;99.90
43249;DHT22;29216;51.248;6.808;2022-09-12T10:14:35;22.00;99.90
43249;DHT22;29216;51.248;6.808;2022-09-12T10:17:48;22.10;99.90
43249;DHT22;29216;51.248;6.808;2022-09-12T10:19:48;22.20;99.90
43249;DHT22;29216;51.248;6.808;2022-09-12T10:22:18;22.10;99.90
43249;DHT22;29216;51.248;6.808;2022-09-12T10:24:57;22.10;99.90
43249;DHT22;29216;51.248;6.808;2022-09-12T10:27:31;22.10;99.90
43249;DHT22;29216;51.248;6.808;2022-09-12T10:32:48;22.00;99.90
43249;DHT22;29216;51.248;6.808;2022-09-12T10:35:28;22.00;99.90
43249;DHT22;29216;51.248;6.808;2022-09-12T10:38:00;22.00;99.90
43249;DHT22;29216;51.248;6.808;2022-09-12T10:40:27;22.00;99.90
43249;DHT22;29216;51.248;6.808;2022-09-12T10:42:58;22.00;99.90
43249;DHT22;29216;51.248;6.808;2022-09-12T10:45:33;22.00;99.90
43249;DHT22;29216;51.248;6.808;2022-09-12T10:50:47;22.10;99.90
43249;DHT22;29216;51.248;6.808;2022-09-12T10:53:47;22.20;99.90
43249;DHT22;29216;51.248;6.808;2022-09-12T10:56:17;22.20;99.90
43249;DHT22;29216;51.248;6.808;2022-09-12T11:05:05;22.40;99.90
43249;DHT22;29216;51.248;6.808;2022-09-12T11:07:56;22.50;99.90
43249;DHT22;29216;51.248;6.808;2022-09-12T11:10:29;22.50;99.90
43249;DHT22;29216;51.248;6.808;2022-09-12T11:18:51;22.60;99.90
43249;DHT22;29216;51.248;6.808;2022-09-12T11:40:31;22.80;99.90
43249;DHT22;29216;51.248;6.808;2022-09-12T11:43:48;22.80;99.90
43249;DHT22;29216;51.248;6.808;2022-09-12T11:45:49;22.90;99.90
43249;DHT22;29216;51.248;6.808;2022-09-12T11:48:53;22.90;99.90
43249;DHT22;29216;51.248;6.808;2022-09-12T11:51:25;22.90;99.90
43249;DHT22;29216;51.248;6.808;2022-09-12T11:54:01;22.90;99.90
43249;DHT22;29216;51.248;6.808;2022-09-12T11:56:30;23.00;99.90
43249;DHT22;29216;51.248;6.808;2022-09-12T11:59:08;23.00;99.90
43249;DHT22;29216;51.248;6.808;2022-09-12T12:01:39;23.00;99.90
43249;DHT22;29216;51.248;6.808;2022-09-12T12:04:10;23.00;99.90
43249;DHT22;29216;51.248;6.808;2022-09-12T12:09:11;23.10;99.90
43249;DHT22;29216;51.248;6.808;2022-09-12T12:11:47;23.10;99.90
43249;DHT22;29216;51.248;6.808;2022-09-12T12:14:21;23.20;99.90
43249;DHT22;29216;51.248;6.808;2022-09-12T12:16:48;23.30;99.90
43249;DHT22;29216;51.248;6.808;2022-09-12T12:47:54;23.60;99.90
43249;DHT22;29216;51.248;6.808;2022-09-12T12:50:25;23.50;99.90
43249;DHT22;29216;51.248;6.808;2022-09-12T12:52:58;23.50;99.90
43249;DHT22;29216;51.248;6.808;2022-09-12T12:55:26;23.50;99.90
43249;DHT22;29216;51.248;6.808;2022-09-12T12:57:57;23.50;99.90
43249;DHT22;29216;51.248;6.808;2022-09-12T13:02:55;23.60;99.90
43249;DHT22;29216;51.248;6.808;2022-09-12T13:05:23;23.60;99.90
43249;DHT22;29216;51.248;6.808;2022-09-12T13:10:49;23.70;99.90
43249;DHT22;29216;51.248;6.808;2022-09-12T13:13:26;23.70;99.90
43249;DHT22;29216;51.248;6.808;2022-09-12T13:15:54;23.80;99.90
43249;DHT22;29216;51.248;6.808;2022-09-12T13:18:47;23.80;99.90
43249;DHT22;29216;51.248;6.808;2022-09-12T13:23:40;23.80;99.90
43249;DHT22;29216;51.248;6.808;2022-09-12T13:26:34;23.90;99.90
43249;DHT22;29216;51.248;6.808;2022-09-12T13:29:20;23.90;99.90
43249;DHT22;29216;51.248;6.808;2022-09-12T13:31:54;24.00;99.90
43249;DHT22;29216;51.248;6.808;2022-09-12T13:34:33;23.90;99.90
43249;DHT22;29216;51.248;6.808;2022-09-12T13:42:41;24.00;99.90
43249;DHT22;29216;51.248;6.808;2022-09-12T13:45:21;24.00;99.90
43249;DHT22;29216;51.248;6.808;2022-09-12T13:47:53;24.10;99.90
43249;DHT22;29216;51.248;6.808;2022-09-12T13:50:25;24.20;99.90
43249;DHT22;29216;51.248;6.808;2022-09-12T13:52:55;24.20;99.90
43249;DHT22;29216;51.248;6.808;2022-09-12T13:57:59;24.30;99.90
43249;DHT22;29216;51.248;6.808;2022-09-12T14:00:25;24.50;99.90
43249;DHT22;29216;51.248;6.808;2022-09-12T14:02:53;24.50;99.90
43249;DHT22;29216;51.248;6.808;2022-09-12T14:05:40;24.60;98.80
43249;DHT22;29216;51.248;6.808;2022-09-12T14:08:10;24.50;99.10
43249;DHT22;29216;51.248;6.808;2022-09-12T14:10:43;24.50;98.90
43249;DHT22;29216;51.248;6.808;2022-09-12T14:13:24;24.50;98.90
43249;DHT22;29216;51.248;6.808;2022-09-12T14:15:52;24.60;98.20
43249;DHT22;29216;51.248;6.808;2022-09-12T14:18:26;24.50;98.50
43249;DHT22;29216;51.248;6.808;2022-09-12T14:20:54;24.50;99.00
43249;DHT22;29216;51.248;6.808;2022-09-12T14:23:29;24.50;98.90
43249;DHT22;29216;51.248;6.808;2022-09-12T14:25:59;24.50;98.90
43249;DHT22;29216;51.248;6.808;2022-09-12T14:28:26;24.50;99.30
43249;DHT22;29216;51.248;6.808;2022-09-12T14:31:21;24.40;99.80
43249;DHT22;29216;51.248;6.808;2022-09-12T14:33:54;24.50;99.90
43249;DHT22;29216;51.248;6.808;2022-09-12T14:38:49;24.50;99.60
43249;DHT22;29216;51.248;6.808;2022-09-12T14:41:27;24.40;99.90
43249;DHT22;29216;51.248;6.808;2022-09-12T14:43:58;24.40;99.90
43249;DHT22;29216;51.248;6.808;2022-09-12T14:46:33;24.30;99.90
43249;DHT22;29216;51.248;6.808;2022-09-12T14:49:30;24.30;99.90
43249;DHT22;29216;51.248;6.808;2022-09-12T14:51:57;24.30;99.90
43249;DHT22;29216;51.248;6.808;2022-09-12T14:57:16;24.40;99.50
43249;DHT22;29216;51.248;6.808;2022-09-12T14:59:43;24.30;99.60
43249;DHT22;29216;51.248;6.808;2022-09-12T15:02:21;24.40;99.50
43249;DHT22;29216;51.248;6.808;2022-09-12T15:04:52;24.40;99.90
43249;DHT22;29216;51.248;6.808;2022-09-12T15:07:52;24.50;99.30
43249;DHT22;29216;51.248;6.808;2022-09-12T15:10:32;24.50;99.60
43249;DHT22;29216;51.248;6.808;2022-09-12T15:15:33;24.40;99.90
43249;DHT22;29216;51.248;6.808;2022-09-12T15:17:59;24.20;99.90
43249;DHT22;29216;51.248;6.808;2022-09-12T15:20:25;24.20;99.90
43249;DHT22;29216;51.248;6.808;2022-09-12T15:22:51;24.10;99.90
43249;DHT22;29216;51.248;6.808;2022-09-12T15:25:17;24.00;99.90
43249;DHT22;29216;51.248;6.808;2022-09-12T15:27:45;23.90;99.90
43249;DHT22;29216;51.248;6.808;2022-09-12T15:30:12;23.90;99.90
43249;DHT22;29216;51.248;6.808;2022-09-12T15:32:39;23.90;99.90
43249;DHT22;29216;51.248;6.808;2022-09-12T15:35:16;24.00;99.90
43249;DHT22;29216;51.248;6.808;2022-09-12T15:37:42;23.90;99.90
43249;DHT22;29216;51.248;6.808;2022-09-12T15:40:10;23.90;99.90
43249;DHT22;29216;51.248;6.808;2022-09-12T15:42:36;24.00;99.90
43249;DHT22;29216;51.248;6.808;2022-09-12T15:45:01;23.90;99.90
43249;DHT22;29216;51.248;6.808;2022-09-12T15:47:29;23.90;99.90
43249;DHT22;29216;51.248;6.808;2022-09-12T15:49:54;23.90;99.90
43249;DHT22;29216;51.248;6.808;2022-09-12T15:52:20;23.90;99.90
43249;DHT22;29216;51.248;6.808;2022-09-12T15:54:46;23.90;99.90
43249;DHT22;29216;51.248;6.808;2022-09-12T15:57:11;23.80;99.90
43249;DHT22;29216;51.248;6.808;2022-09-12T15:59:37;23.70;99.90
43249;DHT22;29216;51.248;6.808;2022-09-12T16:02:02;23.60;99.90
43249;DHT22;29216;51.248;6.808;2022-09-12T16:04:29;23.60;99.90
43249;DHT22;29216;51.248;6.808;2022-09-12T16:06:56;23.60;99.90
43249;DHT22;29216;51.248;6.808;2022-09-12T16:09:22;23.50;99.90
43249;DHT22;29216;51.248;6.808;2022-09-12T16:11:48;23.60;99.90
43249;DHT22;29216;51.248;6.808;2022-09-12T16:14:15;23.60;99.90
43249;DHT22;29216;51.248;6.808;2022-09-12T16:16:42;23.50;99.90
43249;DHT22;29216;51.248;6.808;2022-09-12T16:19:08;23.50;99.90
43249;DHT22;29216;51.248;6.808;2022-09-12T16:21:35;23.50;99.90
43249;DHT22;29216;51.248;6.808;2022-09-12T16:24:01;23.50;99.90
43249;DHT22;29216;51.248;6.808;2022-09-12T16:26:27;23.60;99.90
43249;DHT22;29216;51.248;6.808;2022-09-12T16:28:58;23.60;99.90
43249;DHT22;29216;51.248;6.808;2022-09-12T16:31:26;23.60;99.90
43249;DHT22;29216;51.248;6.808;2022-09-12T16:33:52;23.60;99.90
43249;DHT22;29216;51.248;6.808;2022-09-12T16:36:19;23.60;99.90
43249;DHT22;29216;51.248;6.808;2022-09-12T16:38:49;23.60;99.90
43249;DHT22;29216;51.248;6.808;2022-09-12T16:41:17;23.60;99.90
43249;DHT22;29216;51.248;6.808;2022-09-12T16:43:43;23.70;99.90
43249;DHT22;29216;51.248;6.808;2022-09-12T16:46:21;23.70;99.90
43249;DHT22;29216;51.248;6.808;2022-09-12T16:48:49;23.70;99.90
43249;DHT22;29216;51.248;6.808;2022-09-12T16:51:17;23.70;99.90
43249;DHT22;29216;51.248;6.808;2022-09-12T16:53:44;23.60;99.90
43249;DHT22;29216;51.248;6.808;2022-09-12T16:56:10;23.60;99.90
43249;DHT22;29216;51.248;6.808;2022-09-12T16:58:38;23.50;99.90
43249;DHT22;29216;51.248;6.808;2022-09-12T17:01:18;23.50;99.90
43249;DHT22;29216;51.248;6.808;2022-09-12T17:03:43;23.50;99.90
43249;DHT22;29216;51.248;6.808;2022-09-12T17:06:12;23.50;99.90
43249;DHT22;29216;51.248;6.808;2022-09-12T17:08:42;23.50;99.90
43249;DHT22;29216;51.248;6.808;2022-09-12T17:11:11;23.40;99.90
43249;DHT22;29216;51.248;6.808;2022-09-12T17:13:38;23.50;99.90
43249;DHT22;29216;51.248;6.808;2022-09-12T17:16:08;23.60;99.90
43249;DHT22;29216;51.248;6.808;2022-09-12T17:18:35;23.50;99.90
43249;DHT22;29216;51.248;6.808;2022-09-12T17:21:01;23.50;99.90
43249;DHT22;29216;51.248;6.808;2022-09-12T17:23:27;23.30;99.90
43249;DHT22;29216;51.248;6.808;2022-09-12T17:25:52;23.30;99.90
43249;DHT22;29216;51.248;6.808;2022-09-12T17:28:19;23.20;99.90
43249;DHT22;29216;51.248;6.808;2022-09-12T17:30:45;23.20;99.90
43249;DHT22;29216;51.248;6.808;2022-09-12T17:33:11;23.10;99.90
43249;DHT22;29216;51.248;6.808;2022-09-12T17:35:37;23.00;99.90
43249;DHT22;29216;51.248;6.808;2022-09-12T17:38:04;22.80;99.90
43249;DHT22;29216;51.248;6.808;2022-09-12T17:40:30;22.70;99.90
43249;DHT22;29216;51.248;6.808;2022-09-12T17:42:59;22.60;99.90
43249;DHT22;29216;51.248;6.808;2022-09-12T17:45:26;22.50;99.90
43249;DHT22;29216;51.248;6.808;2022-09-12T17:47:52;22.40;99.90
43249;DHT22;29216;51.248;6.808;2022-09-12T17:50:18;22.40;99.90
43249;DHT22;29216;51.248;6.808;2022-09-12T17:52:47;22.30;99.90
43249;DHT22;29216;51.248;6.808;2022-09-12T17:55:13;22.10;99.90
43249;DHT22;29216;51.248;6.808;2022-09-12T17:57:39;21.90;99.90
43249;DHT22;29216;51.248;6.808;2022-09-12T18:00:08;21.80;99.90
43249;DHT22;29216;51.248;6.808;2022-09-12T18:02:37;21.60;99.90
43249;DHT22;29216;51.248;6.808;2022-09-12T18:05:03;21.50;99.90
43249;DHT22;29216;51.248;6.808;2022-09-12T18:07:30;21.40;99.90
43249;DHT22;29216;51.248;6.808;2022-09-12T18:09:56;21.20;99.90
43249;DHT22;29216;51.248;6.808;2022-09-12T18:12:23;21.00;99.90
43249;DHT22;29216;51.248;6.808;2022-09-12T18:14:49;20.90;99.90
43249;DHT22;29216;51.248;6.808;2022-09-12T18:17:14;20.70;99.90
43249;DHT22;29216;51.248;6.808;2022-09-12T18:19:40;20.50;99.90
43249;DHT22;29216;51.248;6.808;2022-09-12T18:22:06;20.30;99.90
43249;DHT22;29216;51.248;6.808;2022-09-12T18:24:38;20.20;99.90
43249;DHT22;29216;51.248;6.808;2022-09-12T18:27:04;20.00;99.90
43249;DHT22;29216;51.248;6.808;2022-09-12T18:29:32;19.90;99.90
43249;DHT22;29216;51.248;6.808;2022-09-12T18:31:58;19.80;99.90
43249;DHT22;29216;51.248;6.808;2022-09-12T18:34:24;19.70;99.90
43249;DHT22;29216;51.248;6.808;2022-09-12T18:36:49;19.60;99.90
43249;DHT22;29216;51.248;6.808;2022-09-12T18:39:16;19.40;99.90
43249;DHT22;29216;51.248;6.808;2022-09-12T18:41:45;19.40;99.90
43249;DHT22;29216;51.248;6.808;2022-09-12T18:44:13;19.20;99.90